sensor_id;sensor_type;location;lat;lon;timestamp;temperature;humidity
38480;DHT22;62333;51.980;5.934;2023-02-26T00:02:14;4.20;68.00
38480;DHT22;62333;51.980;5.934;2023-02-26T00:04:41;4.10;68.10
38480;DHT22;62333;51.980;5.934;2023-02-26T00:07:07;4.10;68.20
38480;DHT22;62333;51.980;5.934;2023-02-26T00:09:32;4.10;68.40
38480;DHT22;62333;51.980;5.934;2023-02-26T00:11:59;4.10;68.50
38480;DHT22;62333;51.980;5.934;2023-02-26T00:14:25;4.00;68.60
38480;DHT22;62333;51.980;5.934;2023-02-26T00:19:40;4.00;69.00
38480;DHT22;62333;51.980;5.934;2023-02-26T00:22:06;4.00;69.10
38480;DHT22;62333;51.980;5.934;2023-02-26T00:24:32;3.90;69.20
38480;DHT22;62333;51.980;5.934;2023-02-26T00:26:58;3.90;69.40
38480;DHT22;62333;51.980;5.934;2023-02-26T00:29:25;3.90;69.60
38480;DHT22;62333;51.980;5.934;2023-02-26T00:31:51;3.80;69.90
38480;DHT22;62333;51.980;5.934;2023-02-26T00:34:16;3.80;70.00
38480;DHT22;62333;51.980;5.934;2023-02-26T00:37:07;3.80;70.20
38480;DHT22;62333;51.980;5.934;2023-02-26T00:42:34;3.80;70.40
38480;DHT22;62333;51.980;5.934;2023-02-26T00:45:00;3.70;70.50
38480;DHT22;62333;51.980;5.934;2023-02-26T00:52:52;3.70;70.80
38480;DHT22;62333;51.980;5.934;2023-02-26T00:55:18;3.60;71.00
38480;DHT22;62333;51.980;5.934;2023-02-26T00:57:44;3.60;70.90
38480;DHT22;62333;51.980;5.934;2023-02-26T01:00:11;3.60;70.90
38480;DHT22;62333;51.980;5.934;2023-02-26T01:02:38;3.60;71.00
38480;DHT22;62333;51.980;5.934;2023-02-26T01:05:05;3.60;71.00
38480;DHT22;62333;51.980;5.934;2023-02-26T01:07:44;3.60;71.10
38480;DHT22;62333;51.980;5.934;2023-02-26T01:10:12;3.50;71.20
38480;DHT22;62333;51.980;5.934;2023-02-26T01:12:38;3.50;71.20
38480;DHT22;62333;51.980;5.934;2023-02-26T01:15:05;3.50;71.20
38480;DHT22;62333;51.980;5.934;2023-02-26T01:20:26;3.50;71.30
38480;DHT22;62333;51.980;5.934;2023-02-26T01:25:46;3.50;71.30
38480;DHT22;62333;51.980;5.934;2023-02-26T01:28:13;3.50;71.30
38480;DHT22;62333;51.980;5.934;2023-02-26T01:30:39;3.50;71.30
38480;DHT22;62333;51.980;5.934;2023-02-26T01:33:21;3.50;71.30
38480;DHT22;62333;51.980;5.934;2023-02-26T01:35:54;3.50;71.40
38480;DHT22;62333;51.980;5.934;2023-02-26T01:39:06;3.40;71.30
38480;DHT22;62333;51.980;5.934;2023-02-26T01:49:17;3.40;71.50
38480;DHT22;62333;51.980;5.934;2023-02-26T01:51:44;3.40;71.50
38480;DHT22;62333;51.980;5.934;2023-02-26T01:54:11;3.40;71.50
38480;DHT22;62333;51.980;5.934;2023-02-26T01:56:38;3.30;71.50
38480;DHT22;62333;51.980;5.934;2023-02-26T01:59:05;3.30;71.50
38480;DHT22;62333;51.980;5.934;2023-02-26T02:01:33;3.40;71.60
38480;DHT22;62333;51.980;5.934;2023-02-26T02:04:00;3.30;71.70
38480;DHT22;62333;51.980;5.934;2023-02-26T02:06:27;3.40;71.80
38480;DHT22;62333;51.980;5.934;2023-02-26T02:08:54;3.30;71.80
38480;DHT22;62333;51.980;5.934;2023-02-26T02:11:20;3.30;71.90
38480;DHT22;62333;51.980;5.934;2023-02-26T02:16:42;3.20;72.00
38480;DHT22;62333;51.980;5.934;2023-02-26T02:25:13;3.20;72.00
38480;DHT22;62333;51.980;5.934;2023-02-26T02:33:17;3.10;72.30
38480;DHT22;62333;51.980;5.934;2023-02-26T02:35:55;3.10;72.40
38480;DHT22;62333;51.980;5.934;2023-02-26T02:38:47;3.10;72.40
38480;DHT22;62333;51.980;5.934;2023-02-26T02:41:19;3.10;72.40
38480;DHT22;62333;51.980;5.934;2023-02-26T02:43:46;3.00;72.40
38480;DHT22;62333;51.980;5.934;2023-02-26T02:46:20;3.00;72.50
38480;DHT22;62333;51.980;5.934;2023-02-26T02:48:58;3.00;72.70
38480;DHT22;62333;51.980;5.934;2023-02-26T02:51:43;3.00;72.70
38480;DHT22;62333;51.980;5.934;2023-02-26T02:54:10;3.10;72.80
38480;DHT22;62333;51.980;5.934;2023-02-26T02:56:46;3.00;72.80
38480;DHT22;62333;51.980;5.934;2023-02-26T02:59:31;3.00;72.80
38480;DHT22;62333;51.980;5.934;2023-02-26T03:02:06;3.00;72.80
38480;DHT22;62333;51.980;5.934;2023-02-26T03:04:35;2.90;72.80
38480;DHT22;62333;51.980;5.934;2023-02-26T03:07:01;2.90;72.80
38480;DHT22;62333;51.980;5.934;2023-02-26T03:09:26;2.90;72.90
38480;DHT22;62333;51.980;5.934;2023-02-26T03:11:52;2.80;72.80
38480;DHT22;62333;51.980;5.934;2023-02-26T03:14:18;2.80;72.90
38480;DHT22;62333;51.980;5.934;2023-02-26T03:30:47;2.60;72.90
38480;DHT22;62333;51.980;5.934;2023-02-26T03:33:17;2.60;72.90
38480;DHT22;62333;51.980;5.934;2023-02-26T03:41:13;2.50;73.00
38480;DHT22;62333;51.980;5.934;2023-02-26T03:46:24;2.50;73.00
38480;DHT22;62333;51.980;5.934;2023-02-26T03:48:52;2.50;73.00
38480;DHT22;62333;51.980;5.934;2023-02-26T03:51:20;2.50;73.00
38480;DHT22;62333;51.980;5.934;2023-02-26T03:53:55;2.50;73.00
38480;DHT22;62333;51.980;5.934;2023-02-26T03:56:46;2.40;72.90
38480;DHT22;62333;51.980;5.934;2023-02-26T03:59:13;2.50;73.00
38480;DHT22;62333;51.980;5.934;2023-02-26T04:01:48;2.40;72.90
38480;DHT22;62333;51.980;5.934;2023-02-26T04:04:45;2.40;73.00
38480;DHT22;62333;51.980;5.934;2023-02-26T04:07:14;2.40;73.00
38480;DHT22;62333;51.980;5.934;2023-02-26T04:09:44;2.40;73.00
38480;DHT22;62333;51.980;5.934;2023-02-26T04:12:10;2.40;73.00
38480;DHT22;62333;51.980;5.934;2023-02-26T04:14:36;2.30;73.00
38480;DHT22;62333;51.980;5.934;2023-02-26T04:17:02;2.30;73.00
38480;DHT22;62333;51.980;5.934;2023-02-26T04:19:28;2.30;73.70
38480;DHT22;62333;51.980;5.934;2023-02-26T04:21:53;2.30;73.10
38480;DHT22;62333;51.980;5.934;2023-02-26T04:24:19;2.30;73.10
38480;DHT22;62333;51.980;5.934;2023-02-26T04:26:45;2.30;73.10
38480;DHT22;62333;51.980;5.934;2023-02-26T04:29:11;2.20;73.00
38480;DHT22;62333;51.980;5.934;2023-02-26T04:31:36;2.20;73.00
38480;DHT22;62333;51.980;5.934;2023-02-26T04:34:02;2.20;73.10
38480;DHT22;62333;51.980;5.934;2023-02-26T04:36:28;2.20;73.10
38480;DHT22;62333;51.980;5.934;2023-02-26T04:38:54;2.10;73.10
38480;DHT22;62333;51.980;5.934;2023-02-26T04:41:19;2.20;73.20
38480;DHT22;62333;51.980;5.934;2023-02-26T04:43:45;2.10;73.10
38480;DHT22;62333;51.980;5.934;2023-02-26T04:46:11;2.10;73.70
38480;DHT22;62333;51.980;5.934;2023-02-26T04:48:37;2.10;73.00
38480;DHT22;62333;51.980;5.934;2023-02-26T04:51:02;2.10;73.10
38480;DHT22;62333;51.980;5.934;2023-02-26T04:53:28;2.10;73.00
38480;DHT22;62333;51.980;5.934;2023-02-26T04:55:54;2.10;73.00
38480;DHT22;62333;51.980;5.934;2023-02-26T04:58:19;2.10;73.00
38480;DHT22;62333;51.980;5.934;2023-02-26T05:00:49;2.10;73.00
38480;DHT22;62333;51.980;5.934;2023-02-26T05:03:15;2.10;73.00
38480;DHT22;62333;51.980;5.934;2023-02-26T05:05:41;2.10;73.00
38480;DHT22;62333;51.980;5.934;2023-02-26T05:08:07;2.10;72.90
38480;DHT22;62333;51.980;5.934;2023-02-26T05:10:33;2.10;72.90
38480;DHT22;62333;51.980;5.934;2023-02-26T05:12:59;2.00;72.90
38480;DHT22;62333;51.980;5.934;2023-02-26T05:15:24;2.10;73.00
38480;DHT22;62333;51.980;5.934;2023-02-26T05:17:50;2.00;72.80
38480;DHT22;62333;51.980;5.934;2023-02-26T05:20:16;2.00;72.90
38480;DHT22;62333;51.980;5.934;2023-02-26T05:22:42;2.00;72.90
38480;DHT22;62333;51.980;5.934;2023-02-26T05:25:09;2.00;72.90
38480;DHT22;62333;51.980;5.934;2023-02-26T05:27:37;1.90;72.90
38480;DHT22;62333;51.980;5.934;2023-02-26T05:30:03;2.00;72.90
38480;DHT22;62333;51.980;5.934;2023-02-26T05:32:29;1.90;72.80
38480;DHT22;62333;51.980;5.934;2023-02-26T05:34:54;1.90;72.80
38480;DHT22;62333;51.980;5.934;2023-02-26T05:37:20;1.90;72.80
38480;DHT22;62333;51.980;5.934;2023-02-26T05:39:46;1.90;72.80
38480;DHT22;62333;51.980;5.934;2023-02-26T05:42:11;1.90;72.80
38480;DHT22;62333;51.980;5.934;2023-02-26T05:44:37;1.90;72.80
38480;DHT22;62333;51.980;5.934;2023-02-26T05:47:03;1.90;72.80
38480;DHT22;62333;51.980;5.934;2023-02-26T05:49:28;1.90;72.80
38480;DHT22;62333;51.980;5.934;2023-02-26T05:51:54;1.90;72.80
38480;DHT22;62333;51.980;5.934;2023-02-26T05:54:19;1.80;72.80
38480;DHT22;62333;51.980;5.934;2023-02-26T05:56:45;1.80;72.80
38480;DHT22;62333;51.980;5.934;2023-02-26T05:59:11;1.80;72.80
38480;DHT22;62333;51.980;5.934;2023-02-26T06:01:37;1.80;72.70
38480;DHT22;62333;51.980;5.934;2023-02-26T06:04:05;1.80;72.80
38480;DHT22;62333;51.980;5.934;2023-02-26T06:06:31;1.80;72.80
38480;DHT22;62333;51.980;5.934;2023-02-26T06:08:57;1.80;72.80
38480;DHT22;62333;51.980;5.934;2023-02-26T06:11:24;1.80;72.70
38480;DHT22;62333;51.980;5.934;2023-02-26T06:13:50;1.80;72.80
38480;DHT22;62333;51.980;5.934;2023-02-26T06:16:16;1.80;72.80
38480;DHT22;62333;51.980;5.934;2023-02-26T06:18:41;1.80;72.70
38480;DHT22;62333;51.980;5.934;2023-02-26T06:21:07;1.80;72.70
38480;DHT22;62333;51.980;5.934;2023-02-26T06:23:33;1.80;73.30
38480;DHT22;62333;51.980;5.934;2023-02-26T06:25:59;1.80;72.60
38480;DHT22;62333;51.980;5.934;2023-02-26T06:28:25;1.80;72.50
38480;DHT22;62333;51.980;5.934;2023-02-26T06:30:52;1.80;72.40
38480;DHT22;62333;51.980;5.934;2023-02-26T06:33:18;1.80;72.40
38480;DHT22;62333;51.980;5.934;2023-02-26T06:35:44;1.80;72.40
38480;DHT22;62333;51.980;5.934;2023-02-26T06:38:10;1.80;72.40
38480;DHT22;62333;51.980;5.934;2023-02-26T06:40:36;1.80;72.30
38480;DHT22;62333;51.980;5.934;2023-02-26T06:43:01;1.80;72.30
38480;DHT22;62333;51.980;5.934;2023-02-26T06:45:27;1.80;72.20
38480;DHT22;62333;51.980;5.934;2023-02-26T06:47:53;1.80;72.30
38480;DHT22;62333;51.980;5.934;2023-02-26T06:50:19;1.80;72.30
38480;DHT22;62333;51.980;5.934;2023-02-26T06:52:44;1.80;72.10
38480;DHT22;62333;51.980;5.934;2023-02-26T06:55:10;1.80;72.10
38480;DHT22;62333;51.980;5.934;2023-02-26T06:57:36;1.80;72.10
38480;DHT22;62333;51.980;5.934;2023-02-26T07:00:03;1.90;72.20
38480;DHT22;62333;51.980;5.934;2023-02-26T07:02:29;1.90;72.10
38480;DHT22;62333;51.980;5.934;2023-02-26T07:04:55;1.90;72.10
38480;DHT22;62333;51.980;5.934;2023-02-26T07:07:20;2.00;72.10
38480;DHT22;62333;51.980;5.934;2023-02-26T07:09:46;2.10;72.10
38480;DHT22;62333;51.980;5.934;2023-02-26T07:12:12;2.10;72.00
38480;DHT22;62333;51.980;5.934;2023-02-26T07:14:38;2.20;72.50
38480;DHT22;62333;51.980;5.934;2023-02-26T07:17:04;2.30;71.80
38480;DHT22;62333;51.980;5.934;2023-02-26T07:19:30;2.40;71.50
38480;DHT22;62333;51.980;5.934;2023-02-26T07:21:56;2.50;71.40
38480;DHT22;62333;51.980;5.934;2023-02-26T07:24:22;2.60;71.30
38480;DHT22;62333;51.980;5.934;2023-02-26T07:26:47;2.80;71.20
38480;DHT22;62333;51.980;5.934;2023-02-26T07:29:13;2.80;70.90
38480;DHT22;62333;51.980;5.934;2023-02-26T07:31:39;3.00;71.00
38480;DHT22;62333;51.980;5.934;2023-02-26T07:34:05;3.10;71.00
38480;DHT22;62333;51.980;5.934;2023-02-26T07:36:30;3.30;71.00
38480;DHT22;62333;51.980;5.934;2023-02-26T07:38:56;3.40;70.70
38480;DHT22;62333;51.980;5.934;2023-02-26T07:41:22;3.60;70.40
38480;DHT22;62333;51.980;5.934;2023-02-26T07:43:47;3.80;70.20
38480;DHT22;62333;51.980;5.934;2023-02-26T07:46:13;3.90;70.10
38480;DHT22;62333;51.980;5.934;2023-02-26T07:48:39;4.10;69.60
38480;DHT22;62333;51.980;5.934;2023-02-26T07:51:06;4.30;70.00
38480;DHT22;62333;51.980;5.934;2023-02-26T07:53:33;4.40;68.90
38480;DHT22;62333;51.980;5.934;2023-02-26T07:55:59;4.50;68.70
38480;DHT22;62333;51.980;5.934;2023-02-26T07:58:24;4.70;68.70
38480;DHT22;62333;51.980;5.934;2023-02-26T08:00:50;4.90;68.50
38480;DHT22;62333;51.980;5.934;2023-02-26T08:03:17;5.00;68.50
38480;DHT22;62333;51.980;5.934;2023-02-26T08:05:43;5.20;68.40
38480;DHT22;62333;51.980;5.934;2023-02-26T08:08:09;5.30;67.80
38480;DHT22;62333;51.980;5.934;2023-02-26T08:10:35;5.50;67.60
38480;DHT22;62333;51.980;5.934;2023-02-26T08:13:01;5.70;67.50
38480;DHT22;62333;51.980;5.934;2023-02-26T08:15:26;5.80;67.30
38480;DHT22;62333;51.980;5.934;2023-02-26T08:17:52;6.00;66.10
38480;DHT22;62333;51.980;5.934;2023-02-26T08:20:18;6.10;65.00
38480;DHT22;62333;51.980;5.934;2023-02-26T08:22:44;6.20;65.60
38480;DHT22;62333;51.980;5.934;2023-02-26T08:25:10;6.30;64.30
38480;DHT22;62333;51.980;5.934;2023-02-26T08:27:37;6.40;64.10
38480;DHT22;62333;51.980;5.934;2023-02-26T08:30:03;6.40;63.30
38480;DHT22;62333;51.980;5.934;2023-02-26T08:32:29;6.50;62.10
38480;DHT22;62333;51.980;5.934;2023-02-26T08:34:55;6.60;61.70
38480;DHT22;62333;51.980;5.934;2023-02-26T08:37:21;6.60;61.90
38480;DHT22;62333;51.980;5.934;2023-02-26T08:39:50;6.70;61.70
38480;DHT22;62333;51.980;5.934;2023-02-26T08:42:15;6.70;61.40
38480;DHT22;62333;51.980;5.934;2023-02-26T08:44:42;6.80;62.00
38480;DHT22;62333;51.980;5.934;2023-02-26T08:47:08;6.90;61.70
38480;DHT22;62333;51.980;5.934;2023-02-26T08:49:34;7.00;60.80
38480;DHT22;62333;51.980;5.934;2023-02-26T08:52:00;7.10;61.30
38480;DHT22;62333;51.980;5.934;2023-02-26T08:54:25;7.20;60.90
38480;DHT22;62333;51.980;5.934;2023-02-26T08:56:52;7.30;60.90
38480;DHT22;62333;51.980;5.934;2023-02-26T08:59:20;7.40;61.10
38480;DHT22;62333;51.980;5.934;2023-02-26T09:01:46;7.50;60.80
38480;DHT22;62333;51.980;5.934;2023-02-26T09:04:12;7.70;60.10
38480;DHT22;62333;51.980;5.934;2023-02-26T09:06:37;7.80;59.40
38480;DHT22;62333;51.980;5.934;2023-02-26T09:09:03;7.90;59.80
38480;DHT22;62333;51.980;5.934;2023-02-26T09:11:29;8.00;59.40
38480;DHT22;62333;51.980;5.934;2023-02-26T09:13:55;8.10;58.20
38480;DHT22;62333;51.980;5.934;2023-02-26T09:16:23;8.20;56.80
38480;DHT22;62333;51.980;5.934;2023-02-26T09:18:49;8.20;55.90
38480;DHT22;62333;51.980;5.934;2023-02-26T09:21:15;8.30;55.90
38480;DHT22;62333;51.980;5.934;2023-02-26T09:23:41;8.40;55.20
38480;DHT22;62333;51.980;5.934;2023-02-26T09:26:06;8.40;54.90
38480;DHT22;62333;51.980;5.934;2023-02-26T09:28:33;8.50;54.10
38480;DHT22;62333;51.980;5.934;2023-02-26T09:30:59;8.60;54.20
38480;DHT22;62333;51.980;5.934;2023-02-26T09:33:25;8.70;54.20
38480;DHT22;62333;51.980;5.934;2023-02-26T09:35:51;8.80;53.60
38480;DHT22;62333;51.980;5.934;2023-02-26T09:38:17;8.80;52.30
38480;DHT22;62333;51.980;5.934;2023-02-26T09:40:45;8.80;51.90
38480;DHT22;62333;51.980;5.934;2023-02-26T09:46:05;8.90;52.00
38480;DHT22;62333;51.980;5.934;2023-02-26T09:48:33;9.00;50.90
38480;DHT22;62333;51.980;5.934;2023-02-26T09:51:00;9.00;50.50
38480;DHT22;62333;51.980;5.934;2023-02-26T09:53:28;9.10;50.30
38480;DHT22;62333;51.980;5.934;2023-02-26T09:56:09;9.10;49.70
38480;DHT22;62333;51.980;5.934;2023-02-26T09:58:39;9.20;49.50
38480;DHT22;62333;51.980;5.934;2023-02-26T10:01:20;9.30;48.50
38480;DHT22;62333;51.980;5.934;2023-02-26T10:04:09;9.30;48.30
38480;DHT22;62333;51.980;5.934;2023-02-26T10:12:22;9.50;49.30
38480;DHT22;62333;51.980;5.934;2023-02-26T10:19:49;10.00;46.90
38480;DHT22;62333;51.980;5.934;2023-02-26T10:22:22;10.10;46.40
38480;DHT22;62333;51.980;5.934;2023-02-26T10:24:56;10.00;45.60
38480;DHT22;62333;51.980;5.934;2023-02-26T10:30:57;10.10;45.60
38480;DHT22;62333;51.980;5.934;2023-02-26T10:36:03;10.40;43.90
38480;DHT22;62333;51.980;5.934;2023-02-26T10:38:30;10.60;44.20
38480;DHT22;62333;51.980;5.934;2023-02-26T10:41:03;10.80;44.30
38480;DHT22;62333;51.980;5.934;2023-02-26T10:43:34;10.90;44.30
38480;DHT22;62333;51.980;5.934;2023-02-26T10:46:24;11.10;45.00
38480;DHT22;62333;51.980;5.934;2023-02-26T10:51:39;11.40;42.90
38480;DHT22;62333;51.980;5.934;2023-02-26T10:54:34;11.40;42.40
38480;DHT22;62333;51.980;5.934;2023-02-26T10:57:00;11.60;42.90
38480;DHT22;62333;51.980;5.934;2023-02-26T10:59:26;11.60;43.00
38480;DHT22;62333;51.980;5.934;2023-02-26T11:01:52;11.60;42.30
38480;DHT22;62333;51.980;5.934;2023-02-26T11:04:21;11.70;42.20
38480;DHT22;62333;51.980;5.934;2023-02-26T11:06:56;11.80;42.50
38480;DHT22;62333;51.980;5.934;2023-02-26T11:09:35;12.00;42.10
38480;DHT22;62333;51.980;5.934;2023-02-26T11:12:13;12.10;41.60
38480;DHT22;62333;51.980;5.934;2023-02-26T11:14:41;12.10;41.60
38480;DHT22;62333;51.980;5.934;2023-02-26T11:17:19;12.10;40.80
38480;DHT22;62333;51.980;5.934;2023-02-26T11:19:52;12.20;40.70
38480;DHT22;62333;51.980;5.934;2023-02-26T11:22:21;12.30;40.90
38480;DHT22;62333;51.980;5.934;2023-02-26T11:24:48;12.30;41.10
38480;DHT22;62333;51.980;5.934;2023-02-26T11:27:21;12.40;40.20
38480;DHT22;62333;51.980;5.934;2023-02-26T11:29:57;12.40;39.80
38480;DHT22;62333;51.980;5.934;2023-02-26T11:32:30;12.40;39.30
38480;DHT22;62333;51.980;5.934;2023-02-26T11:34:56;12.30;39.30
38480;DHT22;62333;51.980;5.934;2023-02-26T11:37:27;12.20;39.70
38480;DHT22;62333;51.980;5.934;2023-02-26T11:39:59;12.30;40.00
38480;DHT22;62333;51.980;5.934;2023-02-26T11:42:25;12.30;39.40
38480;DHT22;62333;51.980;5.934;2023-02-26T11:44:52;12.40;39.50
38480;DHT22;62333;51.980;5.934;2023-02-26T11:47:25;12.50;39.50
38480;DHT22;62333;51.980;5.934;2023-02-26T11:49:53;12.60;39.30
38480;DHT22;62333;51.980;5.934;2023-02-26T11:52:39;12.70;38.90
38480;DHT22;62333;51.980;5.934;2023-02-26T11:55:18;12.70;39.00
38480;DHT22;62333;51.980;5.934;2023-02-26T11:57:44;12.70;39.00
38480;DHT22;62333;51.980;5.934;2023-02-26T12:00:18;12.60;38.40
38480;DHT22;62333;51.980;5.934;2023-02-26T12:02:44;12.60;38.00
38480;DHT22;62333;51.980;5.934;2023-02-26T12:05:14;12.60;38.30
38480;DHT22;62333;51.980;5.934;2023-02-26T12:07:40;12.70;37.90
38480;DHT22;62333;51.980;5.934;2023-02-26T12:10:28;12.80;37.90
38480;DHT22;62333;51.980;5.934;2023-02-26T12:16:21;12.70;38.20
38480;DHT22;62333;51.980;5.934;2023-02-26T12:27:13;12.40;39.30
38480;DHT22;62333;51.980;5.934;2023-02-26T12:33:03;12.50;39.20
38480;DHT22;62333;51.980;5.934;2023-02-26T12:35:38;12.40;38.10
38480;DHT22;62333;51.980;5.934;2023-02-26T12:41:21;12.00;37.90
38480;DHT22;62333;51.980;5.934;2023-02-26T12:43:51;11.80;38.00
38480;DHT22;62333;51.980;5.934;2023-02-26T12:46:45;11.70;38.40
38480;DHT22;62333;51.980;5.934;2023-02-26T12:57:43;11.40;39.50
38480;DHT22;62333;51.980;5.934;2023-02-26T13:11:57;11.50;39.40
38480;DHT22;62333;51.980;5.934;2023-02-26T13:22:25;11.60;39.70
38480;DHT22;62333;51.980;5.934;2023-02-26T13:25:03;11.60;39.90
38480;DHT22;62333;51.980;5.934;2023-02-26T13:27:33;11.60;39.70
38480;DHT22;62333;51.980;5.934;2023-02-26T13:32:32;11.60;39.60
38480;DHT22;62333;51.980;5.934;2023-02-26T13:35:47;11.60;39.70
38480;DHT22;62333;51.980;5.934;2023-02-26T13:46:46;11.60;39.30
38480;DHT22;62333;51.980;5.934;2023-02-26T13:51:58;11.70;39.60
38480;DHT22;62333;51.980;5.934;2023-02-26T13:54:33;11.70;39.00
38480;DHT22;62333;51.980;5.934;2023-02-26T13:57:14;11.60;38.80
38480;DHT22;62333;51.980;5.934;2023-02-26T14:04:51;11.40;38.30
38480;DHT22;62333;51.980;5.934;2023-02-26T14:11:03;11.30;39.00
38480;DHT22;62333;51.980;5.934;2023-02-26T14:13:39;11.20;39.40
38480;DHT22;62333;51.980;5.934;2023-02-26T14:16:19;11.10;39.20
38480;DHT22;62333;51.980;5.934;2023-02-26T14:23:57;11.10;40.00
38480;DHT22;62333;51.980;5.934;2023-02-26T14:26:27;11.10;39.90
38480;DHT22;62333;51.980;5.934;2023-02-26T14:31:52;11.10;40.00
38480;DHT22;62333;51.980;5.934;2023-02-26T14:34:27;11.10;39.80
38480;DHT22;62333;51.980;5.934;2023-02-26T14:41:58;11.10;40.60
38480;DHT22;62333;51.980;5.934;2023-02-26T14:44:27;11.00;40.80
38480;DHT22;62333;51.980;5.934;2023-02-26T14:46:54;11.00;41.10
38480;DHT22;62333;51.980;5.934;2023-02-26T14:57:56;10.90;41.30
38480;DHT22;62333;51.980;5.934;2023-02-26T15:17:10;10.40;42.40
38480;DHT22;62333;51.980;5.934;2023-02-26T15:20:42;10.20;42.10
38480;DHT22;62333;51.980;5.934;2023-02-26T15:25:30;10.00;42.50
38480;DHT22;62333;51.980;5.934;2023-02-26T15:27:56;9.90;42.70
38480;DHT22;62333;51.980;5.934;2023-02-26T15:30:23;9.80;43.00
38480;DHT22;62333;51.980;5.934;2023-02-26T15:32:55;9.70;43.20
38480;DHT22;62333;51.980;5.934;2023-02-26T15:35:22;9.60;43.30
38480;DHT22;62333;51.980;5.934;2023-02-26T15:37:49;9.60;43.50
38480;DHT22;62333;51.980;5.934;2023-02-26T15:40:15;9.50;43.30
38480;DHT22;62333;51.980;5.934;2023-02-26T15:42:42;9.50;43.40
38480;DHT22;62333;51.980;5.934;2023-02-26T15:47:51;9.40;43.70
38480;DHT22;62333;51.980;5.934;2023-02-26T15:50:18;9.40;44.00
38480;DHT22;62333;51.980;5.934;2023-02-26T15:52:50;9.40;43.70
38480;DHT22;62333;51.980;5.934;2023-02-26T15:55:18;9.30;43.70
38480;DHT22;62333;51.980;5.934;2023-02-26T15:57:44;9.20;43.80
38480;DHT22;62333;51.980;5.934;2023-02-26T16:00:15;9.20;43.90
38480;DHT22;62333;51.980;5.934;2023-02-26T16:02:41;9.20;44.20
38480;DHT22;62333;51.980;5.934;2023-02-26T16:05:09;9.10;44.40
38480;DHT22;62333;51.980;5.934;2023-02-26T16:07:37;9.10;44.80
38480;DHT22;62333;51.980;5.934;2023-02-26T16:10:07;9.10;45.00
38480;DHT22;62333;51.980;5.934;2023-02-26T16:12:40;9.00;45.20
38480;DHT22;62333;51.980;5.934;2023-02-26T16:15:15;9.00;45.50
38480;DHT22;62333;51.980;5.934;2023-02-26T16:17:43;9.00;45.80
38480;DHT22;62333;51.980;5.934;2023-02-26T16:20:21;8.90;45.90
38480;DHT22;62333;51.980;5.934;2023-02-26T16:22:54;8.90;45.90
38480;DHT22;62333;51.980;5.934;2023-02-26T16:28:03;8.90;45.80
38480;DHT22;62333;51.980;5.934;2023-02-26T16:30:35;8.90;46.00
38480;DHT22;62333;51.980;5.934;2023-02-26T16:33:02;8.90;46.10
38480;DHT22;62333;51.980;5.934;2023-02-26T16:35:32;8.80;46.10
38480;DHT22;62333;51.980;5.934;2023-02-26T16:38:20;8.80;46.20
38480;DHT22;62333;51.980;5.934;2023-02-26T16:40:53;8.80;46.30
38480;DHT22;62333;51.980;5.934;2023-02-26T16:46:18;8.70;46.40
38480;DHT22;62333;51.980;5.934;2023-02-26T16:48:54;8.70;46.50
38480;DHT22;62333;51.980;5.934;2023-02-26T16:51:24;8.70;46.70
38480;DHT22;62333;51.980;5.934;2023-02-26T16:53:59;8.60;46.60
38480;DHT22;62333;51.980;5.934;2023-02-26T16:56:31;8.60;46.80
38480;DHT22;62333;51.980;5.934;2023-02-26T17:01:58;8.60;47.10
38480;DHT22;62333;51.980;5.934;2023-02-26T17:04:36;8.60;47.30
38480;DHT22;62333;51.980;5.934;2023-02-26T17:07:08;8.60;47.30
38480;DHT22;62333;51.980;5.934;2023-02-26T17:09:43;8.60;47.40
38480;DHT22;62333;51.980;5.934;2023-02-26T17:12:20;8.60;47.50
38480;DHT22;62333;51.980;5.934;2023-02-26T17:14:54;8.50;47.60
38480;DHT22;62333;51.980;5.934;2023-02-26T17:17:21;8.50;47.80
38480;DHT22;62333;51.980;5.934;2023-02-26T17:19:47;8.50;48.00
38480;DHT22;62333;51.980;5.934;2023-02-26T17:22:15;8.50;48.10
38480;DHT22;62333;51.980;5.934;2023-02-26T17:24:43;8.40;48.10
38480;DHT22;62333;51.980;5.934;2023-02-26T17:27:14;8.40;48.20
38480;DHT22;62333;51.980;5.934;2023-02-26T17:29:43;8.40;48.30
38480;DHT22;62333;51.980;5.934;2023-02-26T17:32:21;8.40;48.40
38480;DHT22;62333;51.980;5.934;2023-02-26T17:34:48;8.40;48.60
38480;DHT22;62333;51.980;5.934;2023-02-26T17:37:15;8.40;48.80
38480;DHT22;62333;51.980;5.934;2023-02-26T17:39:41;8.20;48.90
38480;DHT22;62333;51.980;5.934;2023-02-26T17:42:12;8.20;49.30
38480;DHT22;62333;51.980;5.934;2023-02-26T17:44:38;8.20;49.80
38480;DHT22;62333;51.980;5.934;2023-02-26T17:47:05;8.10;50.10
38480;DHT22;62333;51.980;5.934;2023-02-26T17:49:31;8.10;50.50
38480;DHT22;62333;51.980;5.934;2023-02-26T17:51:57;8.10;50.70
38480;DHT22;62333;51.980;5.934;2023-02-26T17:54:23;8.00;51.10
38480;DHT22;62333;51.980;5.934;2023-02-26T17:56:48;8.00;51.60
38480;DHT22;62333;51.980;5.934;2023-02-26T17:59:14;7.90;51.60
38480;DHT22;62333;51.980;5.934;2023-02-26T18:01:39;7.90;51.90
38480;DHT22;62333;51.980;5.934;2023-02-26T18:04:05;7.80;52.20
38480;DHT22;62333;51.980;5.934;2023-02-26T18:06:35;7.80;52.50
38480;DHT22;62333;51.980;5.934;2023-02-26T18:09:02;7.70;52.60
38480;DHT22;62333;51.980;5.934;2023-02-26T18:11:32;7.70;52.60
38480;DHT22;62333;51.980;5.934;2023-02-26T18:13:58;7.60;52.70
38480;DHT22;62333;51.980;5.934;2023-02-26T18:16:37;7.60;52.80
38480;DHT22;62333;51.980;5.934;2023-02-26T18:19:04;7.50;53.00
38480;DHT22;62333;51.980;5.934;2023-02-26T18:21:30;7.40;53.10
38480;DHT22;62333;51.980;5.934;2023-02-26T18:23:57;7.40;54.00
38480;DHT22;62333;51.980;5.934;2023-02-26T18:26:28;7.30;53.50
38480;DHT22;62333;51.980;5.934;2023-02-26T18:28:55;7.30;53.70
38480;DHT22;62333;51.980;5.934;2023-02-26T18:31:22;7.30;53.70
38480;DHT22;62333;51.980;5.934;2023-02-26T18:33:49;7.20;53.80
38480;DHT22;62333;51.980;5.934;2023-02-26T18:36:23;7.30;54.10
38480;DHT22;62333;51.980;5.934;2023-02-26T18:38:54;7.20;54.20
38480;DHT22;62333;51.980;5.934;2023-02-26T18:41:23;7.20;54.30
38480;DHT22;62333;51.980;5.934;2023-02-26T18:43:48;7.10;54.40
38480;DHT22;62333;51.980;5.934;2023-02-26T18:46:14;7.10;54.60
38480;DHT22;62333;51.980;5.934;2023-02-26T18:48:40;7.00;54.70
38480;DHT22;62333;51.980;5.934;2023-02-26T18:51:05;7.00;54.70
38480;DHT22;62333;51.980;5.934;2023-02-26T18:53:31;6.90;54.80
38480;DHT22;62333;51.980;5.934;2023-02-26T18:55:58;6.90;55.00
38480;DHT22;62333;51.980;5.934;2023-02-26T18:58:24;6.90;55.80
38480;DHT22;62333;51.980;5.934;2023-02-26T19:00:50;6.80;55.10
38480;DHT22;62333;51.980;5.934;2023-02-26T19:03:16;6.80;55.30
38480;DHT22;62333;51.980;5.934;2023-02-26T19:05:42;6.80;55.50
38480;DHT22;62333;51.980;5.934;2023-02-26T19:08:08;6.80;55.60
38480;DHT22;62333;51.980;5.934;2023-02-26T19:10:34;6.70;55.70
38480;DHT22;62333;51.980;5.934;2023-02-26T19:13:01;6.70;55.70
38480;DHT22;62333;51.980;5.934;2023-02-26T19:15:28;6.60;55.80
38480;DHT22;62333;51.980;5.934;2023-02-26T19:17:54;6.60;56.00
38480;DHT22;62333;51.980;5.934;2023-02-26T19:20:20;6.50;56.00